Placitas, New Mexico
Current Conditions -  °F | °C
As of 6:52 AM on Sunday 21 Dec 2014 (Local Time) from KABQ Reporting Station
Broken Clouds Broken Clouds  
Wind Chill: 25°   Ceiling: 24000
Heat Index: 31°   Visibility: 10mi
Dew Point: 24°   Wind: 6mph
Humidity: 76%   Direction: 220°SW
Pressure: 30.04"   Gusts: NA
Location:  35.31°N, 106.42°W
Report Text: KABQ 211352Z 22005KT 10SM SCT060 BKN240 M01/M04 A3004 RMK AO2 SLP172 T10061044
Loading
Personal Weather Stations






























Interactive Weather Map New forecast layout! Learn more

10-Day Weather Forecast

Advertisements
Track Severe Weather on mobile